Time;durP1;ratioP1;P1;durP2;ratioP2;P2;SDS_P1;SDS_P2;PMS_P1;PMS_P2;Temp;Humidity;BMP_temperature;BMP_pressure;BME280_temperature;BME280_humidity;BME280_pressure;Samples;Min_cycle;Max_cycle;Signal;HPM_P1;HPM_P2
2021/01/03 00:00:24;;;;;;;16.05;10.65;;;19.10;49.90;;;;;;5018903;28;20057;-64
2021/01/03 00:02:50;;;;;;;13.80;9.65;;;19.00;49.90;;;;;;5000076;28;20530;-65
2021/01/03 00:05:18;;;;;;;12.77;9.52;;;19.10;49.90;;;;;;5002260;28;20035;-64
2021/01/03 00:07:43;;;;;;;15.40;9.98;;;19.10;49.90;;;;;;5002395;28;20398;-65
2021/01/03 00:10:09;;;;;;;15.57;10.10;;;19.10;49.90;;;;;;5002148;28;20034;-65
2021/01/03 00:12:35;;;;;;;13.77;9.63;;;19.10;49.80;;;;;;5002646;28;20030;-64
2021/01/03 00:15:00;;;;;;;11.35;9.43;;;19.10;49.90;;;;;;5002820;28;20536;-64
2021/01/03 00:17:26;;;;;;;14.43;9.15;;;19.10;49.90;;;;;;5003101;28;20053;-64
2021/01/03 00:19:51;;;;;;;11.63;9.68;;;19.10;49.80;;;;;;5001568;28;20034;-64
2021/01/03 00:22:17;;;;;;;11.77;9.05;;;19.10;49.80;;;;;;5003540;28;20052;-64
2021/01/03 00:24:42;;;;;;;11.70;9.60;;;19.10;49.80;;;;;;5002952;28;20125;-65
2021/01/03 00:27:08;;;;;;;11.55;9.52;;;19.10;49.80;;;;;;5002224;28;20038;-64
2021/01/03 00:29:33;;;;;;;11.95;10.50;;;19.10;49.80;;;;;;5003359;28;20030;-64
2021/01/03 00:31:59;;;;;;;12.02;9.75;;;19.10;49.80;;;;;;5001885;28;20037;-64
2021/01/03 00:34:25;;;;;;;10.60;9.05;;;19.10;49.70;;;;;;5002557;28;20210;-63
2021/01/03 00:36:50;;;;;;;11.25;9.13;;;19.10;49.80;;;;;;5004089;28;20026;-62
2021/01/03 00:39:16;;;;;;;11.55;9.07;;;19.10;49.70;;;;;;5004221;28;20082;-64
2021/01/03 00:41:41;;;;;;;12.73;10.02;;;19.10;49.80;;;;;;5003358;28;20493;-64
2021/01/03 00:44:07;;;;;;;12.68;9.82;;;19.00;49.70;;;;;;5003612;28;20173;-64
2021/01/03 00:46:32;;;;;;;15.60;10.25;;;19.10;49.70;;;;;;5004380;28;20041;-64
2021/01/03 00:48:58;;;;;;;11.32;9.90;;;19.00;49.70;;;;;;5001393;28;20045;-64
2021/01/03 00:51:23;;;;;;;14.10;10.63;;;19.00;49.70;;;;;;5004426;28;20108;-64
2021/01/03 00:53:49;;;;;;;10.98;9.73;;;19.00;49.70;;;;;;5003378;28;20084;-64
2021/01/03 00:56:14;;;;;;;13.10;10.32;;;19.00;49.70;;;;;;5003454;28;20038;-62
2021/01/03 00:58:40;;;;;;;13.65;10.82;;;19.00;49.70;;;;;;5002780;28;20049;-64
2021/01/03 01:01:05;;;;;;;12.95;9.90;;;19.00;49.70;;;;;;5003097;28;20034;-65
2021/01/03 01:03:31;;;;;;;12.02;9.82;;;19.10;49.70;;;;;;5002763;28;20132;-64
2021/01/03 01:05:56;;;;;;;11.50;9.48;;;19.10;49.70;;;;;;5003033;28;20073;-64
2021/01/03 01:08:23;;;;;;;12.48;10.95;;;19.10;49.70;;;;;;5001456;28;20168;-62
2021/01/03 01:10:48;;;;;;;12.20;10.52;;;19.10;49.70;;;;;;5003379;28;20042;-64
2021/01/03 01:13:14;;;;;;;14.40;10.82;;;19.10;49.70;;;;;;5002309;28;20033;-64
2021/01/03 01:15:39;;;;;;;12.70;10.30;;;19.10;49.70;;;;;;5002726;28;20045;-64
2021/01/03 01:18:05;;;;;;;14.27;10.75;;;19.10;49.60;;;;;;5004215;28;20057;-64
2021/01/03 01:20:32;;;;;;;12.25;9.88;;;19.10;49.70;;;;;;5006880;28;20045;-63
2021/01/03 01:22:57;;;;;;;11.38;9.80;;;19.10;49.60;;;;;;5004098;28;20109;-64
2021/01/03 01:25:26;;;;;;;11.30;9.82;;;19.10;49.60;;;;;;5005359;28;20176;-64
2021/01/03 01:27:52;;;;;;;13.80;10.77;;;19.10;49.60;;;;;;5005398;28;20119;-64
2021/01/03 01:30:18;;;;;;;13.45;10.25;;;19.10;49.60;;;;;;5004888;28;20382;-63
2021/01/03 01:32:43;;;;;;;13.35;10.48;;;19.10;49.60;;;;;;5003909;28;20037;-64
2021/01/03 01:35:11;;;;;;;12.57;10.73;;;19.10;49.60;;;;;;5005421;28;20033;-64
2021/01/03 01:37:36;;;;;;;11.85;9.80;;;19.10;49.60;;;;;;5006027;28;20038;-64
2021/01/03 01:40:04;;;;;;;12.15;10.52;;;19.10;49.60;;;;;;5005387;28;20047;-64
2021/01/03 01:42:29;;;;;;;13.48;10.30;;;19.10;49.60;;;;;;5004813;28;20034;-64
2021/01/03 01:44:55;;;;;;;11.10;9.88;;;19.10;49.60;;;;;;5005396;28;20060;-64
2021/01/03 01:47:27;;;;;;;13.23;10.02;;;19.10;49.60;;;;;;5004516;28;20050;-64
2021/01/03 01:49:53;;;;;;;11.98;10.02;;;19.10;49.60;;;;;;5003809;28;20026;-64
2021/01/03 01:52:19;;;;;;;11.43;10.15;;;19.10;49.60;;;;;;5004036;28;20030;-64
2021/01/03 01:54:48;;;;;;;12.00;9.85;;;19.10;49.60;;;;;;5004042;28;20045;-65
2021/01/03 01:57:21;;;;;;;13.82;10.52;;;19.10;50.20;;;;;;5006109;28;20532;-65
2021/01/03 01:59:49;;;;;;;13.40;10.48;;;19.10;49.60;;;;;;4987758;28;20049;-64
2021/01/03 02:02:26;;;;;;;10.70;9.35;;;19.10;49.50;;;;;;5004284;28;20571;-64
2021/01/03 02:05:11;;;;;;;13.27;10.73;;;19.10;49.50;;;;;;4988942;28;20034;-64
2021/01/03 02:07:46;;;;;;;12.30;9.63;;;19.10;50.20;;;;;;5005413;28;20062;-64
2021/01/03 02:10:19;;;;;;;13.43;10.27;;;19.00;49.60;;;;;;5003296;28;20065;-64
2021/01/03 02:12:47;;;;;;;15.88;10.73;;;19.00;49.50;;;;;;5005029;28;20027;-65
2021/01/03 02:15:32;;;;;;;13.52;10.77;;;19.00;49.60;;;;;;5003357;28;20030;-65
2021/01/03 02:17:58;;;;;;;;;;;19.00;49.60;;;;;;5005198;28;20121;-64
2021/01/03 02:20:24;;;;;;;11.90;9.85;;;19.00;49.60;;;;;;5020791;28;20217;-64
2021/01/03 02:23:01;;;;;;;14.25;10.90;;;19.00;49.50;;;;;;4987075;28;20564;-64
2021/01/03 02:25:26;;;;;;;12.65;10.13;;;19.00;49.60;;;;;;4987046;28;20639;-63
2021/01/03 02:28:15;;;;;;;13.13;10.40;;;19.00;49.60;;;;;;5003609;28;20034;-64
2021/01/03 02:30:42;;;;;;;13.73;10.63;;;18.90;49.60;;;;;;5019671;28;20589;-64
2021/01/03 02:33:16;;;;;;;13.15;10.65;;;18.90;49.50;;;;;;5004216;28;20038;-63
2021/01/03 02:35:42;;;;;;;14.77;10.70;;;18.90;49.60;;;;;;5003664;28;20033;-64
2021/01/03 02:38:07;;;;;;;14.23;11.05;;;18.90;49.60;;;;;;5003159;28;20049;-64
2021/01/03 02:40:33;;;;;;;13.65;10.77;;;18.90;49.50;;;;;;5003441;28;20034;-64
2021/01/03 02:42:59;;;;;;;13.35;10.57;;;18.80;49.40;;;;;;5003593;28;20030;-63
2021/01/03 02:45:26;;;;;;;14.23;10.82;;;18.80;49.40;;;;;;5004094;28;20045;-64
2021/01/03 02:47:52;;;;;;;16.13;11.73;;;18.80;49.40;;;;;;5001851;28;20456;-65
2021/01/03 02:50:19;;;;;;;13.77;11.02;;;18.70;49.40;;;;;;5003652;28;20034;-65
2021/01/03 02:52:45;;;;;;;14.15;11.07;;;18.70;49.30;;;;;;4997896;28;20122;-64
2021/01/03 02:55:11;;;;;;;13.23;10.90;;;18.70;49.40;;;;;;5001601;28;20046;-64
2021/01/03 02:57:37;;;;;;;14.00;10.77;;;18.70;49.40;;;;;;5004123;28;20057;-64
2021/01/03 03:00:09;;;;;;;13.57;10.68;;;18.60;49.40;;;;;;5003951;28;20041;-65
2021/01/03 03:02:35;;;;;;;15.38;11.38;;;18.60;49.30;;;;;;5002536;28;20026;-64
2021/01/03 03:05:00;;;;;;;12.95;10.93;;;18.60;49.40;;;;;;5004174;28;20103;-64
2021/01/03 03:07:26;;;;;;;13.75;11.55;;;18.60;49.50;;;;;;5002620;28;20033;-65
2021/01/03 03:09:51;;;;;;;12.93;10.07;;;18.60;49.50;;;;;;5003816;28;20037;-64
2021/01/03 03:12:17;;;;;;;14.10;11.18;;;18.70;49.40;;;;;;5004400;28;20034;-65
2021/01/03 03:14:42;;;;;;;11.60;10.25;;;18.70;50.00;;;;;;5007564;28;20038;-65
2021/01/03 03:17:08;;;;;;;12.85;11.27;;;18.80;49.30;;;;;;5007797;28;20054;-63
2021/01/03 03:19:34;;;;;;;11.65;10.02;;;18.70;49.20;;;;;;5002204;28;20042;-63
2021/01/03 03:21:59;;;;;;;11.80;10.60;;;18.70;49.30;;;;;;5003176;28;20037;-64
2021/01/03 03:24:25;;;;;;;12.23;10.32;;;18.80;49.40;;;;;;5002091;28;20034;-64
2021/01/03 03:26:54;;;;;;;13.57;11.60;;;18.70;49.40;;;;;;5004140;28;20022;-64
2021/01/03 03:29:20;;;;;;;13.23;10.05;;;18.70;49.40;;;;;;5003407;28;20092;-63
2021/01/03 03:31:46;;;;;;;14.55;10.98;;;18.80;49.50;;;;;;5003457;28;20405;-65
2021/01/03 03:34:11;;;;;;;12.98;10.52;;;18.80;49.50;;;;;;5001800;28;20405;-66
2021/01/03 03:36:37;;;;;;;13.05;9.82;;;18.80;49.50;;;;;;5001637;28;20721;-64
2021/01/03 03:39:03;;;;;;;14.30;10.77;;;18.80;49.50;;;;;;5000027;28;20053;-65
2021/01/03 03:41:28;;;;;;;12.50;10.00;;;18.90;49.50;;;;;;5003017;28;20038;-64
2021/01/03 03:43:54;;;;;;;12.15;10.57;;;18.90;49.50;;;;;;5002858;28;20048;-66
2021/01/03 03:46:19;;;;;;;13.10;9.88;;;18.90;49.50;;;;;;5003550;28;20037;-64
2021/01/03 03:48:45;;;;;;;13.50;11.05;;;18.90;49.40;;;;;;5002962;28;20037;-64
2021/01/03 03:51:18;;;;;;;11.85;10.13;;;19.00;49.50;;;;;;5003303;28;20068;-65
2021/01/03 03:53:44;;;;;;;12.05;9.93;;;19.00;49.40;;;;;;5001717;28;20124;-64
2021/01/03 03:56:10;;;;;;;13.73;10.10;;;19.00;49.40;;;;;;5002720;28;20623;-65
2021/01/03 03:58:35;;;;;;;12.70;10.55;;;19.00;49.40;;;;;;5003765;28;20042;-65
2021/01/03 04:01:01;;;;;;;12.98;10.25;;;19.10;49.30;;;;;;5001715;28;20088;-65
2021/01/03 04:03:26;;;;;;;11.13;9.93;;;19.10;49.30;;;;;;5003296;28;20034;-65
2021/01/03 04:05:52;;;;;;;11.88;9.45;;;19.10;49.20;;;;;;5002918;28;20037;-65
2021/01/03 04:08:17;;;;;;;13.88;10.07;;;19.10;49.20;;;;;;5003227;28;20424;-64
2021/01/03 04:10:43;;;;;;;11.65;9.38;;;19.20;49.30;;;;;;4999603;28;20049;-64
2021/01/03 04:13:09;;;;;;;12.45;10.18;;;19.10;49.10;;;;;;5003275;28;20042;-64
2021/01/03 04:15:34;;;;;;;13.00;10.57;;;19.20;49.20;;;;;;5002195;28;20113;-65
2021/01/03 04:18:00;;;;;;;13.98;10.32;;;19.20;49.20;;;;;;5003177;28;20140;-63
2021/01/03 04:20:25;;;;;;;13.90;10.38;;;19.20;49.10;;;;;;5002438;28;20423;-64
2021/01/03 04:22:51;;;;;;;11.32;9.30;;;19.20;49.10;;;;;;5000849;28;20038;-64
2021/01/03 04:25:16;;;;;;;14.15;10.45;;;19.20;49.10;;;;;;5002824;28;20072;-64
2021/01/03 04:27:42;;;;;;;11.65;9.73;;;19.20;49.10;;;;;;5001460;28;20124;-65
2021/01/03 04:30:08;;;;;;;12.00;9.93;;;19.20;49.00;;;;;;5003847;28;20669;-63
2021/01/03 04:32:34;;;;;;;12.52;10.25;;;19.10;49.00;;;;;;5003517;28;20582;-64
2021/01/03 04:34:59;;;;;;;11.65;10.38;;;19.20;49.70;;;;;;5002827;28;20088;-65
2021/01/03 04:37:25;;;;;;;14.25;11.55;;;19.20;48.90;;;;;;5003445;28;20037;-65
2021/01/03 04:39:50;;;;;;;12.13;10.65;;;19.20;49.00;;;;;;5002188;28;20037;-64
2021/01/03 04:42:18;;;;;;;12.80;10.43;;;19.20;49.00;;;;;;5002499;28;20038;-65
2021/01/03 04:44:54;;;;;;;13.95;10.52;;;19.10;48.90;;;;;;5001288;28;20802;-64
2021/01/03 04:47:22;;;;;;;12.60;10.07;;;19.10;49.10;;;;;;5003242;28;20045;-64
2021/01/03 04:49:59;;;;;;;13.77;10.80;;;19.10;48.80;;;;;;5002274;28;20026;-64
2021/01/03 04:52:48;;;;;;;13.05;10.30;;;19.10;49.50;;;;;;5002591;28;20045;-64
2021/01/03 04:55:18;;;;;;;11.88;10.05;;;19.10;48.80;;;;;;4998023;28;20370;-64
2021/01/03 04:57:58;;;;;;;12.32;10.23;;;19.10;48.90;;;;;;5005992;28;20126;-64
2021/01/03 05:00:26;;;;;;;11.48;9.50;;;19.10;48.80;;;;;;5006133;28;20080;-65
2021/01/03 05:03:04;;;;;;;12.68;9.68;;;19.10;48.80;;;;;;5004385;28;20026;-65
2021/01/03 05:05:32;;;;;;;11.38;9.70;;;19.10;48.80;;;;;;5005757;28;20061;-65
2021/01/03 05:08:17;;;;;;;13.38;10.30;;;19.10;48.80;;;;;;4989067;28;20092;-65
2021/01/03 05:10:43;;;;;;;12.07;9.73;;;19.00;48.80;;;;;;4995569;28;20731;-63
2021/01/03 05:13:26;;;;;;;12.05;9.35;;;19.00;48.80;;;;;;5006957;28;20492;-65
2021/01/03 05:15:52;;;;;;;12.75;9.80;;;19.00;48.70;;;;;;5006217;28;20025;-64
2021/01/03 05:18:17;;;;;;;11.77;10.02;;;19.00;48.60;;;;;;5005252;28;20041;-64
2021/01/03 05:20:52;;;;;;;11.82;9.75;;;19.00;48.70;;;;;;5006328;28;20488;-64
2021/01/03 05:23:19;;;;;;;12.10;10.07;;;19.00;48.70;;;;;;4997365;28;20045;-64
2021/01/03 05:25:46;;;;;;;15.60;10.85;;;19.00;48.60;;;;;;5006509;28;20791;-64
2021/01/03 05:28:19;;;;;;;11.57;9.93;;;19.00;48.60;;;;;;5005784;28;20041;-64
2021/01/03 05:30:45;;;;;;;12.25;10.13;;;19.00;48.60;;;;;;5011113;28;20063;-64
2021/01/03 05:33:12;;;;;;;13.77;10.30;;;19.00;48.60;;;;;;5006935;28;20062;-63
2021/01/03 05:35:40;;;;;;;10.43;8.65;;;19.00;48.60;;;;;;5005679;28;20068;-64
2021/01/03 05:38:06;;;;;;;11.75;9.45;;;19.00;48.60;;;;;;5004960;28;20037;-69
2021/01/03 05:40:39;;;;;;;12.30;10.18;;;18.90;48.60;;;;;;5004763;28;20519;-69
2021/01/03 05:43:20;;;;;;;11.35;9.85;;;18.90;48.50;;;;;;5006201;28;20053;-69
2021/01/03 05:46:07;;;;;;;11.75;9.73;;;18.90;48.50;;;;;;4986038;28;20050;-70
2021/01/03 05:48:36;;;;;;;13.02;10.45;;;18.90;48.60;;;;;;5000421;28;20042;-70
2021/01/03 05:51:02;;;;;;;13.10;10.02;;;18.90;48.50;;;;;;5004340;28;20208;-69
2021/01/03 05:53:28;;;;;;;12.13;9.73;;;18.90;48.60;;;;;;5001175;28;20462;-69
2021/01/03 05:56:11;;;;;;;12.40;10.20;;;18.90;48.60;;;;;;4987636;28;20450;-71
2021/01/03 05:58:38;;;;;;;13.05;9.98;;;18.90;48.60;;;;;;5003769;28;20641;-71
2021/01/03 06:01:14;;;;;;;11.73;9.40;;;18.90;48.70;;;;;;4988017;28;20034;-70
2021/01/03 06:03:39;;;;;;;;;;;18.90;48.70;;;;;;5004057;28;20034;-69
2021/01/03 06:06:16;;;;;;;12.18;9.77;;;18.90;48.70;;;;;;5005793;28;19919;-71
2021/01/03 06:08:42;;;;;;;12.38;10.10;;;18.90;48.80;;;;;;5004452;28;20033;-68
2021/01/03 06:11:25;;;;;;;10.55;9.20;;;18.90;48.80;;;;;;4983728;28;20497;-70
2021/01/03 06:13:53;;;;;;;11.43;9.68;;;18.90;48.80;;;;;;5017430;28;21244;-69
2021/01/03 06:16:43;;;;;;;11.88;9.15;;;18.90;48.80;;;;;;5000572;28;20034;-69
2021/01/03 06:19:28;;;;;;;12.45;9.73;;;18.80;48.70;;;;;;4996061;28;20049;-69
2021/01/03 06:21:53;;;;;;;14.67;10.33;;;18.80;48.80;;;;;;4995698;28;20567;-70
2021/01/03 06:24:26;;;;;;;12.27;10.07;;;18.90;48.80;;;;;;4987209;28;20269;-69
2021/01/03 06:27:03;;;;;;;11.95;9.23;;;18.80;48.80;;;;;;5020280;28;20058;-70
2021/01/03 06:29:35;;;;;;;12.52;9.80;;;18.80;48.80;;;;;;4987244;28;20041;-70
2021/01/03 06:32:38;;;;;;;11.63;9.60;;;18.80;48.80;;;;;;4994216;28;20425;-70
2021/01/03 06:35:09;;;;;;;12.90;10.02;;;18.80;48.80;;;;;;5004252;28;20052;-69
2021/01/03 06:38:03;;;;;;;11.73;9.82;;;18.80;48.80;;;;;;5003876;28;20034;-70
2021/01/03 06:40:34;;;;;;;12.85;10.65;;;18.80;48.80;;;;;;4998172;28;20043;-69
2021/01/03 06:43:04;;;;;;;13.32;10.57;;;18.80;48.80;;;;;;5003782;28;20029;-69
2021/01/03 06:45:49;;;;;;;11.73;9.82;;;18.80;48.80;;;;;;5003579;28;20084;-70
2021/01/03 06:48:30;;;;;;;11.02;9.02;;;18.80;48.80;;;;;;4996460;28;20491;-70
2021/01/03 06:51:10;;;;;;;13.57;9.63;;;18.80;48.80;;;;;;4982688;28;20421;-69
2021/01/03 06:53:54;;;;;;;12.15;10.07;;;18.80;48.80;;;;;;4997989;28;20030;-69
2021/01/03 06:56:42;;;;;;;13.35;10.40;;;18.70;48.80;;;;;;5005346;28;20393;-69
2021/01/03 06:59:32;;;;;;;13.13;10.60;;;18.80;48.90;;;;;;4995644;28;20796;-70
2021/01/03 07:01:58;;;;;;;13.57;10.75;;;18.70;48.80;;;;;;5018440;28;20034;-70
2021/01/03 07:04:26;;;;;;;12.93;10.60;;;18.70;48.80;;;;;;5002601;28;20037;-69
2021/01/03 07:06:51;;;;;;;12.10;10.38;;;18.70;48.80;;;;;;4986515;28;20108;-70
2021/01/03 07:09:17;;;;;;;14.18;11.25;;;18.80;48.90;;;;;;4983405;28;20030;-70
2021/01/03 07:11:44;;;;;;;14.27;10.90;;;18.70;48.80;;;;;;4999475;28;20673;-70
2021/01/03 07:14:19;;;;;;;13.65;10.60;;;18.80;48.90;;;;;;5003088;28;20034;-69
2021/01/03 07:16:44;;;;;;;;;;;18.70;48.80;;;;;;5003144;28;20497;-69
2021/01/03 07:19:10;;;;;;;;;;;18.70;48.80;;;;;;5003753;28;19931;-70
2021/01/03 07:21:38;;;;;;;14.80;10.67;;;18.70;48.80;;;;;;5018220;28;19913;-70
2021/01/03 07:24:31;;;;;;;14.55;10.60;;;18.70;48.90;;;;;;5002181;28;20411;-69
2021/01/03 07:27:24;;;;;;;13.68;11.10;;;18.70;48.90;;;;;;5003859;28;20034;-69
2021/01/03 07:30:13;;;;;;;15.70;11.63;;;18.70;48.90;;;;;;5002504;28;20034;-69
2021/01/03 07:32:48;;;;;;;15.63;11.52;;;18.70;48.90;;;;;;4987432;28;20141;-69
2021/01/03 07:35:19;;;;;;;12.85;11.20;;;18.70;48.90;;;;;;5000967;28;20045;-70
2021/01/03 07:37:45;;;;;;;13.15;11.38;;;18.70;48.90;;;;;;5003272;28;20037;-70
2021/01/03 07:40:15;;;;;;;14.65;11.82;;;18.70;48.90;;;;;;5002407;28;20033;-69
2021/01/03 07:42:44;;;;;;;13.20;10.25;;;18.70;48.90;;;;;;4982969;28;20076;-69
2021/01/03 07:45:14;;;;;;;15.68;11.82;;;18.70;48.90;;;;;;5003376;28;20133;-69
2021/01/03 07:47:52;;;;;;;15.30;11.70;;;18.70;48.90;;;;;;5001914;28;20026;-70
2021/01/03 07:50:20;;;;;;;14.82;11.98;;;18.70;48.80;;;;;;4995073;28;20034;-70
2021/01/03 07:52:55;;;;;;;15.32;11.77;;;18.70;48.90;;;;;;5003315;28;20505;-70
2021/01/03 07:55:24;;;;;;;16.10;12.48;;;18.70;48.90;;;;;;4985858;28;20519;-70
2021/01/03 07:58:03;;;;;;;14.63;11.60;;;18.70;48.90;;;;;;5002032;28;20378;-69
2021/01/03 08:00:32;;;;;;;15.02;12.30;;;18.70;48.90;;;;;;4981865;28;20590;-70
2021/01/03 08:03:03;;;;;;;15.35;12.60;;;18.70;48.80;;;;;;5001967;28;20076;-71
2021/01/03 08:05:29;;;;;;;15.63;12.25;;;18.70;48.90;;;;;;5002989;28;20393;-66
2021/01/03 08:08:05;;;;;;;17.52;12.93;;;18.70;48.90;;;;;;5002934;28;20041;-65
2021/01/03 08:10:30;;;;;;;15.43;12.27;;;18.70;48.90;;;;;;5003161;28;20045;-66
2021/01/03 08:13:04;;;;;;;17.08;13.45;;;18.70;48.90;;;;;;5002115;28;20104;-63
2021/01/03 08:15:31;;;;;;;15.02;12.32;;;18.70;48.90;;;;;;4985499;28;20124;-66
2021/01/03 08:18:03;;;;;;;14.98;12.70;;;18.70;48.90;;;;;;5002467;28;20034;-66
2021/01/03 08:20:29;;;;;;;16.30;12.80;;;18.70;48.90;;;;;;5001673;28;20584;-68
2021/01/03 08:23:05;;;;;;;16.50;12.85;;;18.70;49.00;;;;;;5002410;28;20033;-69
2021/01/03 08:25:30;;;;;;;15.82;12.30;;;18.70;49.00;;;;;;4986352;28;21584;-67
2021/01/03 08:28:27;;;;;;;16.13;12.60;;;18.70;49.00;;;;;;5007948;28;20117;-66
2021/01/03 08:30:52;;;;;;;16.70;12.38;;;18.70;49.00;;;;;;5005405;28;20030;-68
2021/01/03 08:33:33;;;;;;;18.27;12.75;;;18.70;49.10;;;;;;5006798;28;20046;-67
2021/01/03 08:36:31;;;;;;;18.35;12.02;;;18.80;49.20;;;;;;5005122;28;20084;-65
2021/01/03 08:39:03;;;;;;;18.13;12.95;;;18.80;49.20;;;;;;5003732;28;20497;-65
2021/01/03 08:41:29;;;;;;;16.27;12.45;;;18.80;49.30;;;;;;5004862;28;20460;-66
2021/01/03 08:43:55;;;;;;;17.35;12.35;;;18.80;49.30;;;;;;5006317;28;20192;-64
2021/01/03 08:46:28;;;;;;;19.95;12.80;;;18.80;49.40;;;;;;5005055;28;20034;-66
2021/01/03 08:49:05;;;;;;;16.65;12.70;;;18.80;49.40;;;;;;4989048;28;20091;-65
2021/01/03 08:51:31;;;;;;;18.83;12.35;;;18.80;49.50;;;;;;5021037;28;20030;-65
2021/01/03 08:54:06;;;;;;;18.05;13.18;;;18.80;49.60;;;;;;5007151;28;20621;-66
2021/01/03 08:56:47;;;;;;;19.63;13.05;;;18.80;49.60;;;;;;5004811;28;21880;-65
2021/01/03 08:59:16;;;;;;;22.52;14.18;;;18.80;49.60;;;;;;4989137;28;20049;-66
2021/01/03 09:01:42;;;;;;;20.58;14.15;;;18.80;49.70;;;;;;5004400;28;20398;-65
2021/01/03 09:04:11;;;;;;;18.92;14.23;;;18.80;49.70;;;;;;5005831;28;20034;-65
2021/01/03 09:06:36;;;;;;;20.75;14.57;;;18.80;49.70;;;;;;5004597;28;20034;-66
2021/01/03 09:09:09;;;;;;;23.95;15.60;;;18.80;49.70;;;;;;5005269;28;20427;-65
2021/01/03 09:11:35;;;;;;;21.10;14.20;;;18.70;49.70;;;;;;5004780;28;20459;-66
2021/01/03 09:14:22;;;;;;;20.55;14.88;;;18.80;49.70;;;;;;5005487;28;20033;-67
2021/01/03 09:16:55;;;;;;;21.20;14.75;;;18.80;49.70;;;;;;5007328;28;20042;-68
2021/01/03 09:19:28;;;;;;;19.02;14.70;;;18.80;49.80;;;;;;5012644;28;20188;-67
2021/01/03 09:21:58;;;;;;;20.38;15.35;;;18.80;49.80;;;;;;5007413;28;20112;-66
2021/01/03 09:24:28;;;;;;;22.15;16.13;;;18.80;49.80;;;;;;4998244;28;20034;-67
2021/01/03 09:26:55;;;;;;;25.58;16.60;;;18.80;49.80;;;;;;4999813;28;20034;-67
2021/01/03 09:29:24;;;;;;;21.83;16.27;;;18.80;49.80;;;;;;5003101;28;20036;-65
2021/01/03 09:32:15;;;;;;;22.55;16.52;;;18.80;49.80;;;;;;4987014;28;20042;-64
2021/01/03 09:34:50;;;;;;;23.92;15.95;;;18.80;49.80;;;;;;4988576;28;20037;-65
2021/01/03 09:37:30;;;;;;;25.42;17.13;;;18.70;49.80;;;;;;5006007;28;20030;-65
2021/01/03 09:40:20;;;;;;;24.42;15.98;;;18.80;49.90;;;;;;5003251;28;20749;-67
2021/01/03 09:43:00;;;;;;;23.45;15.93;;;18.80;49.90;;;;;;5005235;28;20497;-67
2021/01/03 09:45:50;;;;;;;21.63;15.60;;;18.80;50.00;;;;;;5004464;28;20042;-66
2021/01/03 09:48:38;;;;;;;23.50;17.08;;;18.80;49.90;;;;;;5006464;28;20724;-66
2021/01/03 09:51:15;;;;;;;24.98;16.80;;;18.80;50.00;;;;;;5003049;28;20037;-66
2021/01/03 09:53:41;;;;;;;22.75;17.38;;;18.80;50.00;;;;;;5003732;28;20252;-66
2021/01/03 09:56:06;;;;;;;27.02;18.30;;;18.80;50.00;;;;;;5004448;28;20533;-68
2021/01/03 09:58:36;;;;;;;31.08;18.45;;;18.80;49.90;;;;;;5006151;28;20140;-67
2021/01/03 10:01:01;;;;;;;29.95;19.35;;;18.80;49.90;;;;;;5004141;28;20573;-67
2021/01/03 10:03:37;;;;;;;37.33;20.30;;;18.90;49.90;;;;;;5004372;28;20034;-66
2021/01/03 10:06:20;;;;;;;38.28;21.40;;;18.90;49.90;;;;;;5003701;28;20459;-67
2021/01/03 10:08:46;;;;;;;38.90;22.63;;;18.90;49.90;;;;;;5004692;28;20520;-67
2021/01/03 10:11:27;;;;;;;38.08;24.05;;;18.90;49.90;;;;;;5004891;28;20125;-66
2021/01/03 10:13:57;;;;;;;42.83;23.85;;;18.90;49.90;;;;;;4996646;28;20122;-67
2021/01/03 10:16:24;;;;;;;42.70;23.75;;;18.90;49.90;;;;;;5004407;28;20034;-65
2021/01/03 10:18:50;;;;;;;48.85;25.20;;;18.90;50.00;;;;;;5004134;28;20045;-67
2021/01/03 10:21:35;;;;;;;39.70;23.05;;;18.90;50.00;;;;;;5003872;28;20055;-66
2021/01/03 10:24:02;;;;;;;43.58;24.08;;;19.00;50.10;;;;;;5003221;28;20045;-67
2021/01/03 10:26:33;;;;;;;47.30;25.02;;;19.00;50.20;;;;;;5005200;28;20060;-67
2021/01/03 10:28:58;;;;;;;43.97;24.02;;;19.00;50.20;;;;;;5004162;28;20129;-67
2021/01/03 10:31:24;;;;;;;44.05;24.58;;;19.00;50.30;;;;;;5005466;28;20069;-67
2021/01/03 10:33:50;;;;;;;43.17;23.35;;;19.00;50.90;;;;;;5003524;28;20752;-67
2021/01/03 10:36:17;;;;;;;39.42;22.33;;;19.00;50.30;;;;;;4986512;28;20033;-65
2021/01/03 10:38:43;;;;;;;39.50;23.48;;;19.00;50.30;;;;;;5005214;28;20529;-66
2021/01/03 10:41:08;;;;;;;39.03;23.10;;;19.00;50.30;;;;;;5003496;28;20053;-68
2021/01/03 10:43:34;;;;;;;40.78;23.10;;;19.10;50.30;;;;;;5005125;28;20041;-65
2021/01/03 10:45:59;;;;;;;49.78;23.02;;;19.10;50.30;;;;;;5004599;28;20050;-67
2021/01/03 10:48:25;;;;;;;36.53;22.17;;;19.10;50.30;;;;;;5003802;28;20147;-68
2021/01/03 10:50:50;;;;;;;40.47;22.73;;;19.10;50.30;;;;;;5003172;28;20030;-66
2021/01/03 10:53:16;;;;;;;39.35;21.63;;;19.10;50.20;;;;;;5004486;28;20034;-65
2021/01/03 10:55:41;;;;;;;37.78;21.92;;;19.10;50.20;;;;;;4997928;28;20026;-65
2021/01/03 10:58:07;;;;;;;43.45;24.30;;;19.10;50.20;;;;;;5004610;28;20029;-66
2021/01/03 11:00:32;;;;;;;34.90;20.67;;;19.20;50.20;;;;;;5004292;28;20033;-66
2021/01/03 11:02:58;;;;;;;35.17;20.42;;;19.20;50.30;;;;;;5002679;28;20416;-66
2021/01/03 11:05:23;;;;;;;40.00;20.75;;;19.20;50.30;;;;;;5003901;28;20022;-65
2021/01/03 11:07:49;;;;;;;37.60;20.40;;;19.30;50.40;;;;;;5004552;28;20045;-67
2021/01/03 11:10:14;;;;;;;38.28;19.88;;;19.30;50.40;;;;;;5004327;28;20034;-66
2021/01/03 11:12:40;;;;;;;31.20;19.80;;;19.30;50.40;;;;;;5003538;28;20030;-66
2021/01/03 11:15:07;;;;;;;32.95;19.42;;;19.30;50.40;;;;;;5003527;28;20048;-65
2021/01/03 11:17:32;;;;;;;30.25;19.33;;;19.30;50.40;;;;;;5003200;28;20405;-65
2021/01/03 11:19:58;;;;;;;30.08;18.73;;;19.40;51.10;;;;;;5001812;28;20034;-65
2021/01/03 11:22:23;;;;;;;30.83;18.05;;;19.30;50.50;;;;;;5002529;28;20129;-65
2021/01/03 11:24:49;;;;;;;28.10;16.88;;;19.40;50.50;;;;;;5002313;28;20030;-65
2021/01/03 11:27:17;;;;;;;27.85;17.85;;;19.40;50.50;;;;;;5002689;28;20415;-68
2021/01/03 11:29:42;;;;;;;25.98;17.08;;;19.50;50.50;;;;;;5004377;28;20248;-68
2021/01/03 11:32:14;;;;;;;31.02;17.75;;;19.40;50.50;;;;;;5002715;28;20065;-66
2021/01/03 11:34:39;;;;;;;28.02;16.95;;;19.50;50.50;;;;;;5001659;28;21007;-67
2021/01/03 11:37:08;;;;;;;31.83;17.50;;;19.50;50.40;;;;;;5003676;28;20037;-66
2021/01/03 11:39:33;;;;;;;31.95;17.98;;;19.50;50.50;;;;;;5002375;28;20462;-68
2021/01/03 11:42:00;;;;;;;22.83;16.25;;;19.40;50.40;;;;;;5002027;28;20034;-66
2021/01/03 11:44:26;;;;;;;25.17;15.90;;;19.40;50.50;;;;;;5003097;28;20081;-67
2021/01/03 11:47:01;;;;;;;24.85;16.02;;;19.50;50.50;;;;;;5002366;28;20050;-67
2021/01/03 11:49:27;;;;;;;25.15;15.20;;;19.40;50.50;;;;;;5002997;28;20100;-65
2021/01/03 11:51:52;;;;;;;22.77;14.45;;;19.40;50.50;;;;;;5003409;28;20030;-65
2021/01/03 11:54:18;;;;;;;24.75;14.73;;;19.40;50.60;;;;;;5003366;28;20042;-66
2021/01/03 11:56:44;;;;;;;23.08;15.45;;;19.40;50.60;;;;;;5003314;28;20034;-65
2021/01/03 11:59:09;;;;;;;24.70;15.00;;;19.40;50.60;;;;;;5004527;28;20408;-65
2021/01/03 12:01:35;;;;;;;24.88;14.85;;;19.40;50.70;;;;;;4981690;28;20042;-65
2021/01/03 12:04:00;;;;;;;23.27;14.10;;;19.30;50.60;;;;;;5001341;28;20038;-66
2021/01/03 12:06:26;;;;;;;23.23;14.50;;;19.30;50.60;;;;;;5002447;28;20030;-67
2021/01/03 12:08:51;;;;;;;21.05;14.13;;;19.30;50.60;;;;;;5003596;28;20037;-68
2021/01/03 12:11:21;;;;;;;20.35;14.00;;;19.40;50.60;;;;;;5001927;28;20153;-67
2021/01/03 12:13:47;;;;;;;22.05;13.00;;;19.40;50.60;;;;;;5002470;28;20088;-66
2021/01/03 12:16:20;;;;;;;21.38;13.75;;;19.30;50.60;;;;;;5003512;28;20124;-66
2021/01/03 12:18:46;;;;;;;19.00;12.85;;;19.30;50.60;;;;;;5002210;28;20095;-65
2021/01/03 12:21:11;;;;;;;20.45;12.77;;;19.30;50.60;;;;;;5001702;28;20121;-67
2021/01/03 12:23:37;;;;;;;22.52;13.95;;;19.30;50.60;;;;;;5001748;28;20064;-66
2021/01/03 12:26:02;;;;;;;23.73;13.23;;;19.30;50.60;;;;;;5000738;28;20042;-67
2021/01/03 12:28:28;;;;;;;22.20;12.75;;;19.30;50.50;;;;;;5001441;28;20038;-66
2021/01/03 12:30:53;;;;;;;23.50;13.40;;;19.30;50.50;;;;;;5001942;28;20034;-67
2021/01/03 12:33:19;;;;;;;18.00;11.70;;;19.30;50.40;;;;;;5001362;28;20053;-67
2021/01/03 12:35:44;;;;;;;19.45;12.70;;;19.20;50.20;;;;;;5003508;28;20037;-67
2021/01/03 12:38:10;;;;;;;21.75;12.82;;;19.20;50.20;;;;;;5002534;28;20029;-67
2021/01/03 12:40:35;;;;;;;18.45;12.57;;;19.20;50.20;;;;;;4985351;28;20540;-68
2021/01/03 12:43:02;;;;;;;19.73;13.38;;;19.20;50.10;;;;;;5003347;28;20088;-68